| time (UTC) | temp C | wind direction | speed KPH | gust KPH | rain 1hr cm | rain 24hr cm | rain mn cm | humidity % | barometer mb |
| 20260507160915 | 13 | 174 | 6.4 | 12.9 | 0.00 | 0.48 | 0.00 | 57 | 1015.0 |
| 20260507155715 | 13 | 213 | 9.7 | 14.5 | 0.00 | 0.48 | 0.00 | 57 | 1015.0 |
| 20260507154515 | 13 | 219 | 12.9 | 16.1 | 0.00 | 0.48 | 0.00 | 57 | 1015.0 |
| 20260507153314 | 13 | 192 | 11.3 | 16.1 | 0.00 | 0.48 | 0.00 | 61 | 1015.0 |
| 20260507152115 | 13 | 170 | 4.8 | 11.3 | 0.00 | 0.48 | 0.00 | 62 | 1015.0 |
| 20260507150915 | 13 | 173 | 9.7 | 12.9 | 0.00 | 0.48 | 0.00 | 63 | 1015.0 |
| 20260507145714 | 12 | 200 | 6.4 | 9.7 | 0.00 | 0.48 | 0.00 | 63 | 1015.0 |
| 20260507144515 | 12 | 197 | 8.0 | 14.5 | 0.00 | 0.48 | 0.00 | 65 | 1015.0 |
| 20260507143315 | 13 | 236 | 11.3 | 19.3 | 0.00 | 0.48 | 0.00 | 62 | 1015.0 |
| 20260507142115 | 13 | 233 | 16.1 | 22.5 | 0.00 | 0.48 | 0.00 | 57 | 1015.0 |
| 20260507140916 | 14 | 242 | 22.5 | 32.2 | 0.00 | 0.48 | 0.00 | 50 | 1015.0 |
| 20260507135716 | 14 | 239 | 8.0 | 22.5 | 0.00 | 0.48 | 0.00 | 49 | 1015.0 |
| 20260507134514 | 14 | 239 | 8.0 | 22.5 | 0.00 | 0.48 | 0.00 | 49 | 1015.0 |
| 20260507133315 | 14 | 245 | 17.7 | 24.1 | 0.00 | 0.48 | 0.00 | 50 | 1015.0 |
| 20260507132114 | 13 | 263 | 17.7 | 27.4 | 0.00 | 0.48 | 0.00 | 51 | 1015.0 |
| 20260507130915 | 13 | 273 | 16.1 | 24.1 | 0.00 | 0.48 | 0.00 | 54 | 1015.0 |
| 20260507125715 | 13 | 234 | 16.1 | 24.1 | 0.00 | 0.48 | 0.00 | 53 | 1015.0 |
| 20260507124514 | 13 | 239 | 12.9 | 30.6 | 0.00 | 0.48 | 0.00 | 52 | 1015.0 |
| 20260507123314 | 13 | 228 | 19.3 | 29.0 | 0.00 | 0.48 | 0.00 | 52 | 1015.0 |
| 20260507122114 | 13 | 242 | 14.5 | 25.7 | 0.00 | 0.48 | 0.00 | 51 | 1015.0 |
| 20260507120914 | 13 | 267 | 16.1 | 22.5 | 0.00 | 0.48 | 0.00 | 48 | 1015.0 |
| 20260507115715 | 13 | 252 | 20.9 | 30.6 | 0.00 | 0.48 | 0.00 | 46 | 1015.0 |
| 20260507114515 | 13 | 235 | 25.7 | 30.6 | 0.00 | 0.48 | 0.00 | 48 | 1015.0 |
| 20260507113315 | 13 | 245 | 19.3 | 24.1 | 0.00 | 0.48 | 0.00 | 50 | 1015.0 |
| 20260507112114 | 13 | 235 | 14.5 | 22.5 | 0.00 | 0.48 | 0.00 | 50 | 1015.0 |
| 20260507110915 | 13 | 231 | 8.0 | 29.0 | 0.00 | 0.48 | 0.00 | 52 | 1015.0 |
| 20260507104514 | 13 | 254 | 20.9 | 30.6 | 0.00 | 0.48 | 0.00 | 51 | 1015.0 |
| 20260507103314 | 13 | 243 | 17.7 | 29.0 | 0.00 | 0.48 | 0.00 | 50 | 1015.0 |
| 20260507100915 | 13 | 228 | 20.9 | 32.2 | 0.00 | 0.48 | 0.00 | 50 | 1015.0 |
| 20260507095715 | 13 | 284 | 9.7 | 25.7 | 0.00 | 0.48 | 0.00 | 52 | 1015.0 |
| 20260507094515 | 13 | 284 | 9.7 | 25.7 | 0.00 | 0.48 | 0.00 | 52 | 1015.0 |
| 20260507093316 | 13 | 289 | 25.7 | 37.0 | 0.00 | 0.48 | 0.00 | 51 | 1015.0 |
| 20260507092116 | 13 | 278 | 27.4 | 38.6 | 0.00 | 0.48 | 0.00 | 50 | 1015.0 |
| 20260507090915 | 12 | 236 | 16.1 | 33.8 | 0.00 | 0.48 | 0.00 | 52 | 1015.0 |
| 20260507085715 | 12 | 259 | 19.3 | 29.0 | 0.00 | 0.48 | 0.00 | 53 | 1014.0 |
| 20260507084516 | 12 | 259 | 29.0 | 33.8 | 0.00 | 0.48 | 0.00 | 52 | 1014.0 |
| 20260507083315 | 12 | 251 | 25.7 | 37.0 | 0.00 | 0.48 | 0.00 | 52 | 1014.0 |
| 20260507082115 | 12 | 263 | 19.3 | 32.2 | 0.00 | 0.48 | 0.00 | 53 | 1014.0 |
| 20260507080916 | 12 | 232 | 16.1 | 25.7 | 0.00 | 0.48 | 0.00 | 55 | 1014.0 |
| 20260507074515 | 12 | 245 | 17.7 | 24.1 | 0.00 | 0.48 | 0.00 | 56 | 1014.0 |
| 20260507073315 | 12 | 255 | 14.5 | 22.5 | 0.00 | 0.48 | 0.00 | 56 | 1014.0 |
| 20260507072115 | 12 | 248 | 16.1 | 14.5 | 0.00 | 0.48 | 0.00 | 57 | 1014.0 |
| 20260507070915 | 11 | 245 | 11.3 | 16.1 | 0.00 | 0.48 | 0.00 | 64 | 1014.0 |
| 20260507065715 | 11 | 259 | 8.0 | 12.9 | 0.00 | 0.48 | 0.00 | 66 | 1014.0 |
| 20260507064517 | 11 | 259 | 8.0 | 12.9 | 0.00 | 0.48 | 0.00 | 66 | 1014.0 |
| 20260507063315 | 10 | 246 | 8.0 | 12.9 | 0.00 | 0.51 | 0.51 | 68 | 1014.0 |
| 20260507062115 | 10 | 252 | 8.0 | 11.3 | 0.00 | 0.51 | 0.51 | 70 | 1014.0 |
| 20260507060915 | 10 | 255 | 6.4 | 12.9 | 0.00 | 0.51 | 0.51 | 72 | 1014.0 |
| 20260507055715 | 10 | 261 | 4.8 | 9.7 | 0.00 | 0.51 | 0.51 | 75 | 1014.0 |
| 20260507054515 | 10 | 256 | 6.4 | 12.9 | 0.00 | 0.51 | 0.51 | 74 | 1014.0 |
| 20260507053315 | 10 | 287 | 6.4 | 9.7 | 0.00 | 0.51 | 0.51 | 74 | 1014.0 |
| 20260507052116 | 10 | 264 | 6.4 | 11.3 | 0.00 | 0.51 | 0.51 | 75 | 1013.0 |
| 20260507050914 | 10 | 254 | 3.2 | 9.7 | 0.00 | 0.51 | 0.51 | 77 | 1013.0 |
| 20260507045715 | 10 | 259 | 4.8 | 8.0 | 0.00 | 0.51 | 0.51 | 74 | 1013.0 |
| 20260507044515 | 10 | 242 | 4.8 | 11.3 | 0.00 | 0.51 | 0.51 | 74 | 1013.0 |
| 20260507043315 | 10 | 256 | 8.0 | 12.9 | 0.00 | 0.51 | 0.51 | 74 | 1013.0 |
| 20260507042114 | 9 | 242 | 9.7 | 14.5 | 0.00 | 0.51 | 0.51 | 75 | 1013.0 |
| 20260507040914 | 9 | 228 | 11.3 | 14.5 | 0.00 | 0.51 | 0.51 | 79 | 1013.0 |
| 20260507035714 | 8 | 254 | 11.3 | 14.5 | 0.00 | 0.51 | 0.51 | 90 | 1012.0 |
| 20260507034515 | 8 | 254 | 11.3 | 14.5 | 0.00 | 0.51 | 0.51 | 90 | 1012.0 |
| 20260507033315 | 8 | 269 | 6.4 | 9.7 | 0.00 | 0.51 | 0.51 | 92 | 1013.0 |
| 20260507032114 | 8 | 77 | 1.6 | 4.8 | 0.00 | 0.51 | 0.51 | 92 | 1013.0 |
| 20260507030914 | 8 | 37 | 4.8 | 6.4 | 0.00 | 0.51 | 0.51 | 91 | 1013.0 |
| 20260507025715 | 8 | 274 | 4.8 | 9.7 | 0.00 | 0.51 | 0.51 | 89 | 1012.0 |
| 20260507024514 | 8 | 274 | 4.8 | 9.7 | 0.00 | 0.51 | 0.51 | 89 | 1012.0 |
| 20260507023314 | 8 | 268 | 8.0 | 12.9 | 0.00 | 0.51 | 0.51 | 88 | 1012.0 |
| 20260507022114 | 9 | 251 | 8.0 | 14.5 | 0.00 | 0.51 | 0.51 | 88 | 1012.0 |
| 20260507020914 | 8 | 259 | 9.7 | 14.5 | 0.00 | 0.51 | 0.51 | 90 | 1012.0 |
| 20260507015714 | 8 | 251 | 14.5 | 16.1 | 0.00 | 0.51 | 0.51 | 90 | 1012.0 |
| 20260507014514 | 8 | 254 | 12.9 | 16.1 | 0.00 | 0.51 | 0.51 | 90 | 1012.0 |
| 20260507013315 | 8 | 240 | 12.9 | 17.7 | 0.00 | 0.51 | 0.51 | 90 | 1012.0 |
| 20260507012114 | 8 | 241 | 12.9 | 17.7 | 0.00 | 0.51 | 0.51 | 90 | 1012.0 |
| 20260507010914 | 8 | 241 | 12.9 | 16.1 | 0.00 | 0.51 | 0.51 | 90 | 1012.0 |
| 20260507005714 | 8 | 252 | 14.5 | 17.7 | 0.00 | 0.51 | 0.51 | 89 | 1012.0 |
| 20260507004514 | 8 | 252 | 14.5 | 17.7 | 0.00 | 0.51 | 0.51 | 89 | 1012.0 |
| 20260507003318 | 9 | 252 | 11.3 | 14.5 | 0.00 | 0.51 | 0.51 | 87 | 1012.0 |
| 20260507002114 | 9 | 234 | 12.9 | 12.9 | 0.00 | 0.51 | 0.51 | 86 | 1012.0 |
| 20260507000915 | 10 | 251 | 9.7 | 14.5 | 0.00 | 0.51 | 0.51 | 82 | 1012.0 |
| 20260506235714 | 10 | 247 | 14.5 | 16.1 | 0.00 | 0.51 | 0.51 | 81 | 1012.0 |
| 20260506234514 | 10 | 247 | 14.5 | 16.1 | 0.00 | 0.51 | 0.51 | 81 | 1012.0 |
| 20260506233314 | 10 | 237 | 12.9 | 19.3 | 0.00 | 0.51 | 0.51 | 82 | 1012.0 |
| 20260506232114 | 10 | 237 | 14.5 | 24.1 | 0.00 | 0.51 | 0.51 | 80 | 1012.0 |
| 20260506230915 | 10 | 239 | 14.5 | 22.5 | 0.00 | 0.51 | 0.51 | 85 | 1012.0 |
| 20260506225714 | 10 | 242 | 17.7 | 24.1 | 0.00 | 0.51 | 0.51 | 88 | 1011.0 |
| 20260506224514 | 10 | 242 | 14.5 | 24.1 | 0.00 | 0.51 | 0.51 | 87 | 1011.0 |
| 20260506223315 | 10 | 244 | 19.3 | 24.1 | 0.00 | 0.51 | 0.51 | 90 | 1011.0 |
| 20260506222114 | 10 | 244 | 19.3 | 24.1 | 0.00 | 0.51 | 0.51 | 90 | 1011.0 |
| 20260506220914 | 10 | 242 | 16.1 | 27.4 | 0.03 | 0.51 | 0.51 | 90 | 1011.0 |
| 20260506215714 | 10 | 258 | 22.5 | 30.6 | 0.03 | 0.51 | 0.51 | 91 | 1011.0 |
| 20260506214515 | 10 | 237 | 17.7 | 24.1 | 0.03 | 0.51 | 0.51 | 91 | 1011.0 |
| 20260506213314 | 10 | 248 | 12.9 | 25.7 | 0.00 | 0.48 | 0.48 | 92 | 1011.0 |
| 20260506212114 | 10 | 246 | 20.9 | 25.7 | 0.00 | 0.48 | 0.48 | 93 | 1011.0 |
| 20260506210914 | 10 | 246 | 14.5 | 22.5 | 0.00 | 0.48 | 0.48 | 92 | 1011.0 |
| 20260506205714 | 11 | 256 | 30.6 | 35.4 | 0.15 | 0.46 | 0.46 | 92 | 1011.0 |
| 20260506204514 | 11 | 256 | 30.6 | 35.4 | 0.15 | 0.46 | 0.46 | 92 | 1011.0 |
| 20260506203314 | 11 | 267 | 19.3 | 24.1 | 0.10 | 0.41 | 0.41 | 94 | 1011.0 |
| 20260506202114 | 11 | 250 | 20.9 | 27.4 | 0.05 | 0.33 | 0.33 | 94 | 1011.0 |
| 20260506200914 | 11 | 258 | 16.1 | 24.1 | 0.00 | 0.28 | 0.28 | 93 | 1010.0 |
| 20260506195714 | 12 | 270 | 24.1 | 32.2 | 0.20 | 0.23 | 0.23 | 93 | 1010.0 |
| 20260506194515 | 12 | 270 | 24.1 | 32.2 | 0.20 | 0.23 | 0.23 | 93 | 1010.0 |
| 20260506193314 | 12 | 259 | 20.9 | 29.0 | 0.15 | 0.18 | 0.18 | 92 | 1009.0 |
| 20260506192115 | 12 | 260 | 24.1 | 27.4 | 0.10 | 0.13 | 0.13 | 92 | 1009.0 |
| 20260506190915 | 12 | 258 | 12.9 | 20.9 | 0.00 | 0.03 | 0.03 | 90 | 1009.0 |
| 20260506185716 | 13 | 249 | 20.9 | 32.2 | 0.00 | 0.00 | 0.00 | 89 | 1008.0 |
| 20260506184515 | 13 | 251 | 25.7 | 37.0 | 0.00 | 0.00 | 0.00 | 88 | 1008.0 |
| 20260506183314 | 13 | 239 | 22.5 | 37.0 | 0.00 | 0.00 | 0.00 | 84 | 1007.0 |
| 20260506182115 | 13 | 247 | 29.0 | 38.6 | 0.00 | 0.00 | 0.00 | 77 | 1007.0 |
| 20260506180914 | 14 | 242 | 24.1 | 37.0 | 0.00 | 0.00 | 0.00 | 56 | 1007.0 |
| 20260506175714 | 15 | 241 | 25.7 | 32.2 | 0.00 | 0.00 | 0.00 | 52 | 1006.0 |
| 20260506174515 | 15 | 241 | 25.7 | 32.2 | 0.00 | 0.00 | 0.00 | 52 | 1006.0 |
| 20260506173314 | 17 | 268 | 24.1 | 59.5 | 0.00 | 0.00 | 0.00 | 42 | 1005.0 |
| 20260506172114 | 21 | 280 | 54.7 | 66.0 | 0.00 | 0.00 | 0.00 | 32 | 1004.0 |
| 20260506170915 | 21 | 193 | 11.3 | 19.3 | 0.00 | 0.00 | 0.00 | 29 | 1003.0 |
| 20260506165714 | 21 | 128 | 6.4 | 16.1 | 0.00 | 0.05 | 0.00 | 32 | 1004.0 |
| 20260506164515 | 21 | 128 | 6.4 | 16.1 | 0.00 | 0.05 | 0.00 | 32 | 1004.0 |
| 20260506163314 | 21 | 78 | 12.9 | 25.7 | 0.00 | 0.05 | 0.00 | 33 | 1004.0 |
| 20260506162513 | 21 | 74 | 16.1 | 24.1 | 0.00 | 0.05 | 0.00 | 33 | 1004.0 |